createdAt,value
2022-12-13T00:02:21.596Z,6.57
2022-12-13T00:05:24.723Z,6.00
2022-12-13T00:08:29.238Z,7.10
2022-12-13T00:11:33.220Z,7.30
2022-12-13T00:14:36.446Z,7.77
2022-12-13T00:17:39.572Z,7.13
2022-12-13T00:20:42.695Z,7.13
2022-12-13T00:23:47.856Z,5.93
2022-12-13T00:26:50.962Z,8.17
2022-12-13T00:29:54.222Z,9.40
2022-12-13T00:32:57.576Z,8.47
2022-12-13T00:36:00.804Z,7.10
2022-12-13T00:39:05.444Z,8.20
2022-12-13T00:42:08.597Z,7.13
2022-12-13T00:45:13.548Z,5.90
2022-12-13T00:48:16.852Z,6.60
2022-12-13T00:51:21.372Z,4.87
2022-12-13T00:54:25.877Z,5.60
2022-12-13T00:57:29.047Z,4.70
2022-12-13T01:00:33.354Z,6.10
2022-12-13T01:03:37.623Z,6.27
2022-12-13T01:06:42.326Z,4.80
2022-12-13T01:09:46.801Z,5.70
2022-12-13T01:12:49.913Z,7.13
2022-12-13T01:15:53.016Z,6.20
2022-12-13T01:18:57.779Z,4.53
2022-12-13T01:22:03.642Z,4.87
2022-12-13T01:25:09.214Z,6.73
2022-12-13T01:28:12.323Z,10.20
2022-12-13T01:31:17.743Z,10.33
2022-12-13T01:34:26.545Z,7.50
2022-12-13T01:37:29.983Z,7.60
2022-12-13T01:40:38.596Z,6.50
2022-12-13T01:43:56.961Z,6.03
2022-12-13T01:47:00.091Z,5.93
2022-12-13T01:50:07.463Z,6.30
2022-12-13T01:53:13.977Z,7.03
2022-12-13T01:56:22.235Z,6.27
2022-12-13T01:59:27.175Z,5.40
2022-12-13T02:02:30.634Z,5.73
2022-12-13T02:05:37.547Z,5.43
2022-12-13T02:08:42.710Z,6.80
2022-12-13T02:11:48.011Z,7.70
2022-12-13T02:14:52.794Z,6.10
2022-12-13T02:18:19.508Z,6.80
2022-12-13T02:21:28.784Z,5.90
2022-12-13T02:24:53.229Z,5.27
2022-12-13T02:28:31.491Z,4.53
2022-12-13T02:31:43.979Z,4.60
2022-12-13T02:34:52.692Z,5.60
2022-12-13T02:38:04.259Z,5.33
2022-12-13T02:41:15.963Z,4.67
2022-12-13T02:44:23.202Z,5.70
2022-12-13T02:47:30.377Z,6.77
2022-12-13T02:50:34.650Z,6.00
2022-12-13T02:53:39.635Z,8.00
2022-12-13T02:56:42.801Z,7.53
2022-12-13T02:59:46.111Z,5.93
2022-12-13T03:03:14.078Z,4.80
2022-12-13T03:06:33.894Z,4.33
2022-12-13T03:09:50.493Z,4.40
2022-12-13T03:13:19.383Z,5.40
2022-12-13T03:16:28.681Z,6.43
2022-12-13T03:19:33.234Z,5.87
2022-12-13T03:22:36.405Z,5.00
2022-12-13T03:25:39.641Z,4.93
2022-12-13T03:28:43.038Z,4.40
2022-12-13T03:31:46.775Z,4.00
2022-12-13T03:35:00.505Z,3.73
2022-12-13T03:38:05.593Z,3.30
2022-12-13T03:41:12.013Z,4.30
2022-12-13T03:44:15.401Z,4.03
2022-12-13T03:47:18.670Z,4.43
2022-12-13T03:50:27.191Z,4.23
2022-12-13T03:53:32.343Z,3.90
2022-12-13T03:56:37.372Z,4.23
2022-12-13T03:59:40.461Z,4.50
2022-12-13T04:02:43.667Z,4.03
2022-12-13T04:05:48.148Z,3.90
2022-12-13T04:08:51.548Z,3.77
2022-12-13T04:12:11.892Z,4.60
2022-12-13T04:15:15.310Z,4.73
2022-12-13T04:18:19.498Z,4.30
2022-12-13T04:21:23.984Z,4.27
2022-12-13T04:24:30.810Z,4.13
2022-12-13T04:27:35.180Z,4.33
2022-12-13T04:30:38.670Z,4.40
2022-12-13T04:33:41.751Z,3.67
2022-12-13T04:36:46.200Z,3.73
2022-12-13T04:39:49.259Z,5.00
2022-12-13T04:42:54.270Z,4.40
2022-12-13T04:45:58.877Z,5.50
2022-12-13T04:49:02.200Z,7.73
2022-12-13T04:52:06.644Z,7.83
2022-12-13T04:55:10.380Z,6.17
2022-12-13T04:58:16.121Z,5.93
2022-12-13T05:01:22.909Z,6.67
2022-12-13T05:04:32.142Z,6.43
2022-12-13T05:07:42.571Z,7.20
2022-12-13T05:10:46.071Z,6.77
2022-12-13T05:13:49.170Z,5.70
2022-12-13T05:16:53.372Z,5.30
2022-12-13T05:19:56.517Z,4.90
2022-12-13T05:23:00.996Z,6.20
2022-12-13T05:26:04.656Z,5.87
2022-12-13T05:29:07.797Z,5.57
2022-12-13T05:32:10.939Z,5.87
2022-12-13T05:35:21.981Z,4.60
2022-12-13T05:38:28.199Z,5.60
2022-12-13T05:41:35.420Z,8.30
2022-12-13T05:44:38.551Z,8.80
2022-12-13T05:47:41.644Z,6.97
2022-12-13T05:50:44.824Z,6.33
2022-12-13T05:53:53.229Z,6.33
2022-12-13T05:56:56.749Z,6.57
2022-12-13T06:00:00.051Z,6.27
2022-12-13T06:03:03.225Z,7.17
2022-12-13T06:06:08.619Z,8.37
2022-12-13T06:09:13.077Z,8.20
2022-12-13T06:12:32.485Z,6.90
2022-12-13T06:15:35.858Z,6.17
2022-12-13T06:18:47.887Z,6.03
2022-12-13T06:21:55.604Z,6.27
2022-12-13T06:25:01.625Z,5.87
2022-12-13T06:28:04.978Z,6.97
2022-12-13T06:31:08.134Z,8.10
2022-12-13T06:34:14.984Z,6.97
2022-12-13T06:37:18.392Z,7.30
2022-12-13T06:40:23.379Z,7.67
2022-12-13T06:43:26.580Z,6.83
2022-12-13T06:46:29.824Z,5.67
2022-12-13T06:49:33.034Z,5.40
2022-12-13T06:52:36.225Z,6.37
2022-12-13T06:55:40.709Z,7.33
2022-12-13T06:58:44.245Z,7.77
2022-12-13T07:01:50.723Z,10.43
2022-12-13T07:04:55.753Z,10.60
2022-12-13T07:07:58.874Z,8.93
2022-12-13T07:11:03.552Z,10.30
2022-12-13T07:14:06.636Z,7.00
2022-12-13T07:17:10.891Z,7.63
2022-12-13T07:20:15.876Z,6.57
2022-12-13T07:23:19.116Z,7.83
2022-12-13T07:26:29.309Z,8.30
2022-12-13T07:29:32.640Z,7.30
2022-12-13T07:32:35.727Z,7.93
2022-12-13T07:35:38.850Z,7.47
2022-12-13T07:38:42.372Z,7.90
2022-12-13T07:41:49.640Z,6.97
2022-12-13T07:44:52.716Z,7.60
2022-12-13T07:47:55.942Z,5.27
2022-12-13T07:51:03.183Z,7.10
2022-12-13T07:54:08.473Z,6.10
2022-12-13T07:57:13.412Z,7.03
2022-12-13T08:00:17.142Z,6.20
2022-12-13T08:03:25.166Z,5.73
2022-12-13T08:06:29.461Z,7.37
2022-12-13T08:09:32.560Z,6.00
2022-12-13T08:12:37.016Z,5.93
2022-12-13T08:15:40.161Z,6.13
2022-12-13T08:18:44.195Z,6.13
2022-12-13T08:21:56.749Z,5.97
2022-12-13T08:25:00.817Z,5.10
2022-12-13T08:28:05.649Z,5.30
2022-12-13T08:31:11.537Z,4.30
2022-12-13T08:34:14.673Z,5.80
2022-12-13T08:37:17.977Z,6.07
2022-12-13T08:40:21.446Z,5.67
2022-12-13T08:43:26.260Z,4.73
2022-12-13T08:46:29.491Z,5.27
2022-12-13T08:49:32.736Z,5.20
2022-12-13T08:52:39.421Z,5.50
2022-12-13T08:55:44.004Z,5.40
2022-12-13T08:58:51.500Z,4.80
2022-12-13T09:01:57.608Z,6.50
2022-12-13T09:05:03.680Z,4.93
2022-12-13T09:08:24.771Z,6.17
2022-12-13T09:11:34.490Z,9.10
2022-12-13T09:14:45.495Z,6.53
2022-12-13T09:17:52.208Z,8.37
2022-12-13T09:21:11.029Z,6.33
2022-12-13T09:24:23.983Z,6.50
2022-12-13T09:27:30.338Z,5.47
2022-12-13T09:30:34.969Z,6.33
2022-12-13T09:33:40.756Z,6.20
2022-12-13T09:36:45.013Z,6.07
2022-12-13T09:39:48.682Z,6.20
2022-12-13T09:43:13.712Z,6.80
2022-12-13T09:46:34.867Z,7.23
2022-12-13T09:49:53.175Z,8.00
2022-12-13T09:53:00.080Z,8.57
2022-12-13T09:56:11.024Z,8.40
2022-12-13T09:59:15.733Z,5.70
2022-12-13T10:02:26.115Z,7.00
2022-12-13T10:05:34.606Z,6.13
2022-12-13T10:08:45.809Z,6.60
2022-12-13T10:11:51.275Z,8.57
2022-12-13T10:14:58.203Z,7.60
2022-12-13T10:18:05.307Z,7.87
2022-12-13T10:21:12.730Z,8.80
2022-12-13T10:24:32.854Z,8.00
2022-12-13T10:27:41.648Z,7.70
2022-12-13T10:30:46.543Z,8.40
2022-12-13T10:33:56.639Z,9.07
2022-12-13T10:37:00.115Z,8.87
2022-12-13T10:40:04.017Z,8.37
2022-12-13T10:43:15.355Z,7.33
2022-12-13T10:46:25.288Z,8.80
2022-12-13T10:49:37.032Z,8.23
2022-12-13T10:52:48.136Z,8.53
2022-12-13T10:56:02.183Z,8.20
2022-12-13T10:59:22.741Z,8.27
2022-12-13T11:02:36.027Z,7.20
2022-12-13T11:05:40.975Z,7.23
2022-12-13T11:08:44.163Z,6.07
2022-12-13T11:11:47.437Z,8.90
2022-12-13T11:14:54.294Z,7.33
2022-12-13T11:17:59.674Z,8.50
2022-12-13T11:21:07.941Z,8.20
2022-12-13T11:24:17.623Z,7.50
2022-12-13T11:27:46.604Z,8.60
2022-12-13T11:30:58.071Z,7.43
2022-12-13T11:34:13.582Z,7.00
2022-12-13T11:37:40.717Z,7.50
2022-12-13T11:40:48.287Z,7.40
2022-12-13T11:43:56.121Z,7.20
2022-12-13T11:47:02.163Z,8.27
2022-12-13T11:50:20.510Z,9.70
2022-12-13T11:53:46.437Z,8.57
2022-12-13T11:56:52.557Z,7.10
2022-12-13T12:00:13.158Z,6.57
2022-12-13T12:03:20.500Z,5.53
2022-12-13T12:06:25.821Z,5.90
2022-12-13T12:09:31.289Z,6.27
2022-12-13T12:12:35.970Z,6.87
2022-12-13T12:15:45.990Z,7.60
2022-12-13T12:18:51.078Z,6.00
2022-12-13T12:22:16.462Z,7.40
2022-12-13T12:25:27.936Z,6.83
2022-12-13T12:28:44.660Z,5.83
2022-12-13T12:32:01.338Z,6.00
2022-12-13T12:35:18.236Z,6.33
2022-12-13T12:38:45.865Z,5.57
2022-12-13T12:42:01.635Z,4.83
2022-12-13T12:45:55.360Z,4.90
2022-12-13T12:49:09.781Z,5.60
2022-12-13T12:52:19.621Z,5.90
2022-12-13T12:55:34.067Z,3.40
2022-12-13T12:58:47.981Z,4.87
2022-12-13T13:01:58.356Z,4.10
2022-12-13T13:05:05.611Z,4.63
2022-12-13T13:08:15.435Z,5.47
2022-12-13T13:11:25.100Z,5.80
2022-12-13T13:14:33.239Z,4.97
2022-12-13T13:17:48.711Z,5.20
2022-12-13T13:21:26.741Z,5.53
2022-12-13T13:24:31.287Z,4.90
2022-12-13T13:27:40.272Z,6.33
2022-12-13T13:31:04.551Z,5.80
2022-12-13T13:34:24.413Z,5.40
2022-12-13T13:37:47.890Z,4.60
2022-12-13T13:40:51.852Z,4.90
2022-12-13T13:43:55.115Z,4.90
2022-12-13T13:47:14.426Z,5.70
2022-12-13T13:50:54.549Z,4.90
2022-12-13T13:54:37.384Z,4.13
2022-12-13T13:58:21.614Z,5.03
2022-12-13T14:02:00.992Z,4.47
2022-12-13T14:05:35.723Z,5.27
2022-12-13T14:08:49.252Z,4.80
2022-12-13T14:12:34.684Z,4.80
2022-12-13T14:16:20.558Z,5.90
2022-12-13T14:20:18.123Z,5.90
2022-12-13T14:23:40.214Z,5.10
2022-12-13T14:26:52.666Z,6.63
2022-12-13T14:29:57.917Z,6.30
2022-12-13T14:33:02.359Z,6.37
2022-12-13T14:36:06.137Z,6.33
2022-12-13T14:39:25.209Z,6.60
2022-12-13T14:42:33.456Z,5.10
2022-12-13T14:45:38.851Z,6.83
2022-12-13T14:48:47.770Z,5.93
2022-12-13T14:52:00.560Z,6.30
2022-12-13T14:55:06.225Z,7.00
2022-12-13T14:58:19.792Z,10.27
2022-12-13T15:01:29.302Z,9.90
2022-12-13T15:04:35.807Z,15.37
2022-12-13T15:07:41.367Z,11.23
2022-12-13T15:10:49.045Z,8.20
2022-12-13T15:13:52.772Z,6.53
2022-12-13T15:16:57.284Z,10.13
2022-12-13T15:20:01.788Z,13.67
2022-12-13T15:23:08.274Z,20.93
2022-12-13T15:26:29.256Z,16.30
2022-12-13T15:29:35.560Z,9.73
2022-12-13T15:32:58.725Z,7.67
2022-12-13T15:36:10.630Z,8.70
2022-12-13T15:39:18.277Z,10.40
2022-12-13T15:42:24.456Z,10.30
2022-12-13T15:45:34.966Z,11.10
2022-12-13T15:48:48.600Z,8.13
2022-12-13T15:51:58.048Z,19.70
2022-12-13T15:55:03.081Z,15.70
2022-12-13T15:58:26.854Z,14.30
2022-12-13T16:01:31.294Z,9.13
2022-12-13T16:04:34.989Z,8.60
2022-12-13T16:07:39.997Z,9.67
2022-12-13T16:10:48.458Z,9.30
2022-12-13T16:13:51.627Z,11.73
2022-12-13T16:17:08.656Z,11.77
2022-12-13T16:20:15.665Z,10.33
2022-12-13T16:23:27.016Z,11.00
2022-12-13T16:26:31.269Z,9.70
2022-12-13T16:29:34.458Z,9.90
2022-12-13T16:33:02.818Z,9.83
2022-12-13T16:36:00.867Z,9.67
2022-12-13T16:39:06.595Z,11.20
2022-12-13T16:42:09.783Z,12.17
2022-12-13T16:48:37.932Z,13.53
2022-12-13T16:51:46.502Z,14.33
2022-12-13T16:54:53.014Z,16.10
2022-12-13T16:57:59.266Z,11.23
2022-12-13T17:01:03.274Z,12.40
2022-12-13T17:04:12.861Z,12.87
2022-12-13T17:07:20.427Z,14.03
2022-12-13T17:10:25.978Z,16.23
2022-12-13T17:13:31.656Z,15.13
2022-12-13T17:16:35.603Z,13.20
2022-12-13T17:19:39.550Z,15.17
2022-12-13T17:22:44.560Z,13.83
2022-12-13T17:25:58.355Z,15.30
2022-12-13T17:29:04.442Z,15.93
2022-12-13T17:32:11.094Z,15.07
2022-12-13T17:35:18.274Z,14.37
2022-12-13T17:38:22.641Z,15.60
2022-12-13T17:41:28.020Z,14.17
2022-12-13T17:44:31.754Z,13.73
2022-12-13T17:47:35.266Z,14.17
2022-12-13T17:50:40.454Z,16.10
2022-12-13T17:53:45.359Z,15.27
2022-12-13T17:56:50.699Z,16.47
2022-12-13T17:59:54.730Z,14.87
2022-12-13T18:02:58.070Z,18.10
2022-12-13T18:06:01.824Z,15.73
2022-12-13T18:09:05.291Z,15.67
2022-12-13T18:12:11.364Z,14.83
2022-12-13T18:15:15.292Z,16.70
2022-12-13T18:18:20.492Z,17.40
2022-12-13T18:21:25.226Z,18.87
2022-12-13T18:24:31.161Z,17.40
2022-12-13T18:27:37.727Z,16.00
2022-12-13T18:30:42.293Z,15.67
2022-12-13T18:33:47.886Z,15.10
2022-12-13T18:36:52.825Z,15.70
2022-12-13T18:39:58.315Z,16.50
2022-12-13T18:43:04.340Z,16.00
2022-12-13T18:46:08.456Z,14.90
2022-12-13T18:49:13.699Z,15.60
2022-12-13T18:52:21.405Z,15.07
2022-12-13T18:55:25.804Z,13.63
2022-12-13T18:58:31.628Z,14.60
2022-12-13T19:01:35.980Z,14.70
2022-12-13T19:04:40.629Z,16.20
2022-12-13T19:07:45.901Z,15.03
2022-12-13T19:10:51.451Z,14.00
2022-12-13T19:13:58.159Z,14.73
2022-12-13T19:17:06.735Z,16.17
2022-12-13T19:20:12.593Z,13.90
2022-12-13T19:23:18.689Z,14.43
2022-12-13T19:26:23.316Z,17.13
2022-12-13T19:29:32.973Z,15.83
2022-12-13T19:32:37.624Z,16.20
2022-12-13T19:35:43.676Z,16.87
2022-12-13T19:38:47.798Z,13.77
2022-12-13T19:41:52.267Z,15.10
2022-12-13T19:44:58.961Z,13.63
2022-12-13T19:48:05.806Z,15.17
2022-12-13T19:51:12.147Z,14.20
2022-12-13T19:54:17.804Z,13.00
2022-12-13T19:57:26.857Z,13.73
2022-12-13T20:00:33.688Z,13.80
2022-12-13T20:03:42.396Z,13.30
2022-12-13T20:06:49.370Z,14.83
2022-12-13T20:09:54.519Z,14.20
2022-12-13T20:12:59.643Z,14.50
2022-12-13T20:16:09.517Z,15.53
2022-12-13T20:19:15.248Z,16.17
2022-12-13T20:22:20.152Z,17.03
2022-12-13T20:25:25.051Z,16.37
2022-12-13T20:28:29.853Z,15.27
2022-12-13T20:31:48.274Z,16.90
2022-12-13T20:34:55.148Z,15.90
2022-12-13T20:37:59.540Z,15.33
2022-12-13T20:41:05.789Z,15.30
2022-12-13T20:44:13.105Z,15.30
2022-12-13T20:47:20.857Z,17.90
2022-12-13T20:50:26.188Z,16.20
2022-12-13T20:53:33.912Z,14.40
2022-12-13T20:56:44.756Z,15.07
2022-12-13T20:59:49.405Z,13.37
2022-12-13T21:02:55.355Z,14.30
2022-12-13T21:06:00.060Z,14.10
2022-12-13T21:09:05.745Z,13.80
2022-12-13T21:12:09.967Z,12.67
2022-12-13T21:15:16.639Z,13.27
2022-12-13T21:18:21.367Z,13.60
2022-12-13T21:21:25.749Z,18.10
2022-12-13T21:24:30.017Z,16.83
2022-12-13T21:27:34.110Z,14.83
2022-12-13T21:30:37.693Z,87.13
2022-12-13T21:33:42.509Z,57.63
2022-12-13T21:36:47.670Z,26.40
2022-12-13T21:39:50.909Z,15.93
2022-12-13T21:42:53.973Z,16.90
2022-12-13T21:45:57.452Z,15.17
2022-12-13T21:49:01.977Z,15.40
2022-12-13T21:52:05.337Z,13.60
2022-12-13T21:55:37.874Z,14.17
2022-12-13T21:58:49.886Z,12.60
2022-12-13T22:02:12.982Z,14.47
2022-12-13T22:05:17.741Z,14.93
2022-12-13T22:08:20.909Z,14.03
2022-12-13T22:11:24.056Z,13.23
2022-12-13T22:14:27.315Z,13.27
2022-12-13T22:17:35.696Z,14.13
2022-12-13T22:20:40.828Z,13.60
2022-12-13T22:23:44.012Z,13.07
2022-12-13T22:26:47.165Z,13.27
2022-12-13T22:29:50.665Z,13.40
2022-12-13T22:32:54.144Z,14.10
2022-12-13T22:36:01.555Z,13.67
2022-12-13T22:39:06.081Z,12.00
2022-12-13T22:42:09.313Z,12.47
2022-12-13T22:45:12.641Z,11.60
2022-12-13T22:48:15.728Z,13.30
2022-12-13T22:51:20.965Z,12.10
2022-12-13T22:54:24.074Z,11.30
2022-12-13T22:57:27.194Z,11.30
2022-12-13T23:00:30.273Z,11.47
2022-12-13T23:03:33.448Z,10.50
2022-12-13T23:06:39.475Z,11.10
2022-12-13T23:09:42.640Z,11.20
2022-12-13T23:13:02.945Z,11.10
2022-12-13T23:16:07.362Z,10.20
2022-12-13T23:19:40.236Z,11.00
2022-12-13T23:22:36.854Z,10.13
2022-12-13T23:25:39.945Z,10.90
2022-12-13T23:28:45.038Z,10.80
2022-12-13T23:31:48.493Z,9.73
2022-12-13T23:34:52.383Z,12.20
2022-12-13T23:37:56.870Z,11.30
2022-12-13T23:41:05.397Z,11.23
2022-12-13T23:44:08.525Z,10.67
2022-12-13T23:47:11.645Z,11.50
2022-12-13T23:50:14.739Z,13.03
2022-12-13T23:53:19.258Z,12.13
2022-12-13T23:56:22.611Z,12.63
2022-12-13T23:59:26.169Z,10.57
